Decoded Metar for LFMT (MONTPELLIER in FRANCE) (IATA:MPL) | Meteo·Mobile Aviation Weather
aviador You're here:

LFMT Decoded Metar

MONTPELLIER in FRANCE
Report Time2019-07-19 19:00:00
UTC Time2019-07-19 19:12:12
Flight Rules vfr VFR
Wind220° at 07 kt
W.Decomp.*RWY 30: 1.2 kt HW 6.9 kt LCW
Visibility9999 m
Phenomena:N/A
Clouds:N/A
Expected CloudBase > 3,200 ft AGL from Temp-Dew spread
CeilingNone
Temp25°C (ISA +10)
Dew Point17°C (61% RH)
AAT24.8°C
QNH1015 hPa
Density Alt1,371 ft
Elevation20 ft
Report Wrong Elevation
Raw Report
LFMT 191900Z AUTO 22007KT CAVOK 25/17 Q1015 NOSIG=

Extra information for LFMT:More info

Metar Taf Metar & Taf Last 4 Metars F.Rules Stats Wind Profile Meteogram Temp Stats Airport Information Weather charts Add Link Nearby VenuesMetar ALERT Operation Metar Decoded Social comments